Terminal Aerodrome Forecast
Issued by NWS

Home | Current Version | Previous Version | Text Only | Print | Product List | Glossary On
Versions: 1 2 3 4 5 6 7 8 9 10 11 12 13 14 15 16 17 18 19 20 21
000
FTUS43 KDLH 011000 AAB
TAFHIB
TAF AMD
KHIB 011017Z 0110/0206 VRB05KT 5SM -SN SCT025 BKN035
      TEMPO 0110/0112 2SM -SN BKN015
     FM011400 27006KT P6SM SCT060
     FM011600 27010KT P6SM BKN035
     FM020100 31010KT P6SM SKC=

USA.gov is the U.S. government's official web portal to all federal, state and local government web resources and services.